createdAt,value
2022-08-17T00:01:51.238Z,24.56
2022-08-17T00:04:19.926Z,24.52
2022-08-17T00:06:49.037Z,24.49
2022-08-17T00:09:18.632Z,24.44
2022-08-17T00:12:34.609Z,24.54
2022-08-17T00:14:36.474Z,24.50
2022-08-17T00:17:04.847Z,24.48
2022-08-17T00:19:33.130Z,24.47
2022-08-17T00:22:32.591Z,24.31
2022-08-17T00:24:50.663Z,24.32
2022-08-17T00:27:18.383Z,24.28
2022-08-17T00:29:46.865Z,24.17
2022-08-17T00:33:22.893Z,24.18
2022-08-17T00:35:04.714Z,24.19
2022-08-17T00:37:31.991Z,24.13
2022-08-17T00:39:59.964Z,24.10
2022-08-17T00:42:30.921Z,24.04
2022-08-17T00:44:58.892Z,24.00
2022-08-17T00:47:26.553Z,24.10
2022-08-17T00:49:54.314Z,23.90
2022-08-17T00:52:25.460Z,23.86
2022-08-17T00:54:54.074Z,23.86
2022-08-17T00:57:23.807Z,23.77
2022-08-17T01:00:01.956Z,23.73
2022-08-17T01:02:43.077Z,23.78
2022-08-17T01:05:14.839Z,23.80
2022-08-17T01:07:42.905Z,23.70
2022-08-17T01:10:58.521Z,23.74
2022-08-17T01:13:02.628Z,23.70
2022-08-17T01:15:31.294Z,23.74
2022-08-17T01:17:58.657Z,23.69
2022-08-17T01:20:26.664Z,23.66
2022-08-17T01:22:54.373Z,23.67
2022-08-17T01:25:22.492Z,23.61
2022-08-17T01:27:50.137Z,23.59
2022-08-17T01:30:57.060Z,23.69
2022-08-17T01:33:06.011Z,23.59
2022-08-17T01:35:33.279Z,23.57
2022-08-17T01:38:00.553Z,23.56
2022-08-17T01:40:31.386Z,23.59
2022-08-17T01:43:00.162Z,23.58
2022-08-17T01:45:30.394Z,23.55
2022-08-17T01:47:57.993Z,23.63
2022-08-17T01:50:30.258Z,23.59
2022-08-17T01:53:01.961Z,23.45
2022-08-17T01:55:33.284Z,23.46
2022-08-17T01:58:00.647Z,23.46
2022-08-17T02:00:47.815Z,23.31
2022-08-17T02:03:21.522Z,23.34
2022-08-17T02:05:49.422Z,23.37
2022-08-17T02:08:20.162Z,23.35
2022-08-17T02:10:48.871Z,23.36
2022-08-17T02:13:16.817Z,23.42
2022-08-17T02:15:44.371Z,23.43
2022-08-17T02:18:11.971Z,23.45
2022-08-17T02:20:42.679Z,23.40
2022-08-17T02:23:11.918Z,23.40
2022-08-17T02:25:39.932Z,23.46
2022-08-17T02:28:07.357Z,23.42
2022-08-17T02:31:02.001Z,23.41
2022-08-17T02:33:22.714Z,23.37
2022-08-17T02:35:50.290Z,23.33
2022-08-17T02:38:17.846Z,23.35
2022-08-17T02:40:45.402Z,23.21
2022-08-17T02:43:13.805Z,23.28
2022-08-17T02:45:41.333Z,23.32
2022-08-17T02:48:08.822Z,23.31
2022-08-17T02:50:36.223Z,23.30
2022-08-17T02:53:04.818Z,23.17
2022-08-17T02:55:36.593Z,23.17
2022-08-17T02:58:04.443Z,23.18
2022-08-17T03:00:36.377Z,23.18
2022-08-17T03:03:05.159Z,23.21
2022-08-17T03:05:33.946Z,23.12
2022-08-17T03:08:01.428Z,23.14
2022-08-17T03:10:29.918Z,23.21
2022-08-17T03:12:57.473Z,23.31
2022-08-17T03:15:26.574Z,23.23
2022-08-17T03:17:54.876Z,23.25
2022-08-17T03:20:22.779Z,23.25
2022-08-17T03:22:53.068Z,23.28
2022-08-17T03:25:25.445Z,23.33
2022-08-17T03:27:53.166Z,23.35
2022-08-17T03:30:24.842Z,23.36
2022-08-17T03:32:53.532Z,23.38
2022-08-17T03:35:22.287Z,23.48
2022-08-17T03:37:52.436Z,23.45
2022-08-17T03:40:34.556Z,23.39
2022-08-17T03:43:18.919Z,23.29
2022-08-17T03:46:04.933Z,23.35
2022-08-17T03:48:51.564Z,23.35
2022-08-17T03:51:38.939Z,23.38
2022-08-17T03:54:24.826Z,23.36
2022-08-17T03:57:12.675Z,23.30
2022-08-17T03:59:41.410Z,23.30
2022-08-17T04:02:14.273Z,23.30
2022-08-17T04:04:41.584Z,23.22
2022-08-17T04:07:09.715Z,23.25
2022-08-17T04:09:37.394Z,23.23
2022-08-17T04:12:05.318Z,23.33
2022-08-17T04:14:53.381Z,23.31
2022-08-17T04:17:23.105Z,23.35
2022-08-17T04:19:54.004Z,23.38
2022-08-17T04:22:33.179Z,23.36
2022-08-17T04:25:03.171Z,23.30
2022-08-17T04:27:30.518Z,23.34
2022-08-17T04:29:58.787Z,23.40
2022-08-17T04:33:03.746Z,23.48
2022-08-17T04:35:17.437Z,23.54
2022-08-17T04:37:45.217Z,23.56
2022-08-17T04:40:31.807Z,23.58
2022-08-17T04:43:07.326Z,23.60
2022-08-17T04:45:34.940Z,23.68
2022-08-17T04:48:02.436Z,23.78
2022-08-17T04:50:29.835Z,23.81
2022-08-17T04:52:57.447Z,23.83
2022-08-17T04:55:25.071Z,23.86
2022-08-17T04:57:52.474Z,23.87
2022-08-17T05:00:20.938Z,23.83
2022-08-17T05:02:50.597Z,23.89
2022-08-17T05:05:21.842Z,23.91
2022-08-17T05:07:54.431Z,24.03
2022-08-17T05:10:22.570Z,24.12
2022-08-17T05:12:59.387Z,24.14
2022-08-17T05:15:27.376Z,24.33
2022-08-17T05:17:54.938Z,24.39
2022-08-17T05:20:23.943Z,24.48
2022-08-17T05:22:55.894Z,24.67
2022-08-17T05:25:25.713Z,24.91
2022-08-17T05:27:54.108Z,24.99
2022-08-17T05:30:22.121Z,25.16
2022-08-17T05:32:52.559Z,25.14
2022-08-17T05:35:20.200Z,25.34
2022-08-17T05:37:47.550Z,25.44
2022-08-17T05:40:15.272Z,25.35
2022-08-17T05:42:42.728Z,25.39
2022-08-17T05:45:10.779Z,25.55
2022-08-17T05:47:39.629Z,25.74
2022-08-17T05:50:09.507Z,25.89
2022-08-17T05:52:47.044Z,26.01
2022-08-17T05:55:27.165Z,26.14
2022-08-17T05:58:13.464Z,26.29
2022-08-17T06:00:53.669Z,26.39
2022-08-17T06:03:39.628Z,26.33
2022-08-17T06:06:31.227Z,26.10
2022-08-17T06:09:09.844Z,26.36
2022-08-17T06:11:44.012Z,26.70
2022-08-17T06:14:17.108Z,26.85
2022-08-17T06:16:46.532Z,27.13
2022-08-17T06:19:13.916Z,27.37
2022-08-17T06:21:43.845Z,27.41
2022-08-17T06:24:14.022Z,27.51
2022-08-17T06:26:44.317Z,27.48
2022-08-17T06:29:37.241Z,27.61
2022-08-17T06:32:06.324Z,27.93
2022-08-17T06:34:34.120Z,28.39
2022-08-17T06:37:14.963Z,28.66
2022-08-17T06:40:07.270Z,29.23
2022-08-17T06:43:02.054Z,30.23
2022-08-17T06:45:49.558Z,31.15
2022-08-17T06:48:25.218Z,31.52
2022-08-17T06:50:54.964Z,31.89
2022-08-17T06:53:51.897Z,32.00
2022-08-17T06:56:53.547Z,31.34
2022-08-17T06:59:54.322Z,30.85
2022-08-17T07:02:28.885Z,30.84
2022-08-17T07:05:01.784Z,30.82
2022-08-17T07:07:48.054Z,31.38
2022-08-17T07:10:17.399Z,32.31
2022-08-17T07:12:45.892Z,32.68
2022-08-17T07:15:16.647Z,32.87
2022-08-17T07:17:47.420Z,32.77
2022-08-17T07:20:22.728Z,32.46
2022-08-17T07:23:01.978Z,32.52
2022-08-17T07:25:30.534Z,33.18
2022-08-17T07:28:00.707Z,33.57
2022-08-17T07:30:50.365Z,33.79
2022-08-17T07:33:20.176Z,34.20
2022-08-17T07:35:48.484Z,33.32
2022-08-17T07:38:24.988Z,32.37
2022-08-17T07:41:02.652Z,32.27
2022-08-17T07:43:36.590Z,33.50
2022-08-17T07:46:39.653Z,33.97
2022-08-17T07:49:10.191Z,33.06
2022-08-17T07:51:38.014Z,32.38
2022-08-17T07:54:22.194Z,31.52
2022-08-17T07:56:53.706Z,30.96
2022-08-17T07:59:33.435Z,30.41
2022-08-17T08:02:06.114Z,30.18
2022-08-17T08:05:00.217Z,30.05
2022-08-17T08:07:22.128Z,29.88
2022-08-17T08:10:11.492Z,30.06
2022-08-17T08:12:42.194Z,30.17
2022-08-17T08:15:14.176Z,30.79
2022-08-17T08:17:53.569Z,31.05
2022-08-17T08:20:51.723Z,30.67
2022-08-17T08:23:26.797Z,30.89
2022-08-17T08:26:00.417Z,30.46
2022-08-17T08:29:56.341Z,30.68
2022-08-17T08:32:50.380Z,30.43
2022-08-17T08:35:36.997Z,30.32
2022-08-17T08:38:15.606Z,30.28
2022-08-17T08:41:10.767Z,30.09
2022-08-17T08:44:03.744Z,29.72
2022-08-17T08:46:48.352Z,29.50
2022-08-17T08:49:45.259Z,29.67
2022-08-17T08:52:37.390Z,29.70
2022-08-17T08:55:14.204Z,29.80
2022-08-17T08:57:52.817Z,29.78
2022-08-17T09:00:26.056Z,29.62
2022-08-17T09:03:15.047Z,29.54
2022-08-17T09:05:57.895Z,29.74
2022-08-17T09:08:28.282Z,29.84
2022-08-17T09:11:07.004Z,29.59
2022-08-17T09:14:21.447Z,29.38
2022-08-17T09:17:02.184Z,29.42
2022-08-17T09:19:38.339Z,29.44
2022-08-17T09:22:17.580Z,29.54
2022-08-17T09:24:58.407Z,29.70
2022-08-17T09:27:50.477Z,29.66
2022-08-17T09:30:19.490Z,29.86
2022-08-17T09:32:52.076Z,29.69
2022-08-17T09:35:32.906Z,29.65
2022-08-17T09:38:13.916Z,29.70
2022-08-17T09:41:06.277Z,29.72
2022-08-17T09:43:54.137Z,29.72
2022-08-17T09:46:34.039Z,29.77
2022-08-17T09:49:35.667Z,29.69
2022-08-17T09:52:24.851Z,29.66
2022-08-17T09:54:54.875Z,29.69
2022-08-17T09:57:40.330Z,29.71
2022-08-17T10:00:17.358Z,29.75
2022-08-17T10:02:56.999Z,29.75
2022-08-17T10:05:47.044Z,29.76
2022-08-17T10:08:57.405Z,29.64
2022-08-17T10:12:00.144Z,29.72
2022-08-17T10:14:53.620Z,29.78
2022-08-17T10:17:38.203Z,29.83
2022-08-17T10:20:14.873Z,30.01
2022-08-17T10:23:17.060Z,29.69
2022-08-17T10:26:15.427Z,29.58
2022-08-17T10:29:22.859Z,29.62
2022-08-17T10:32:00.847Z,29.42
2022-08-17T10:34:41.908Z,29.27
2022-08-17T10:37:36.541Z,29.40
2022-08-17T10:40:10.516Z,29.38
2022-08-17T10:42:50.220Z,29.32
2022-08-17T10:45:36.762Z,29.24
2022-08-17T10:48:07.643Z,29.17
2022-08-17T10:50:59.888Z,29.24
2022-08-17T10:53:33.694Z,29.22
2022-08-17T10:56:13.504Z,29.14
2022-08-17T10:58:54.116Z,29.12
2022-08-17T11:01:58.326Z,29.15
2022-08-17T11:04:58.657Z,29.04
2022-08-17T11:08:01.665Z,29.19
2022-08-17T11:11:06.812Z,29.20
2022-08-17T11:13:44.991Z,29.10
2022-08-17T11:16:32.596Z,29.26
2022-08-17T11:19:26.530Z,29.25
2022-08-17T11:22:18.896Z,29.14
2022-08-17T11:24:51.284Z,29.22
2022-08-17T11:27:36.062Z,29.19
2022-08-17T11:30:08.104Z,29.19
2022-08-17T11:32:47.533Z,29.08
2022-08-17T11:35:21.822Z,29.18
2022-08-17T11:38:02.922Z,29.09
2022-08-17T11:41:02.522Z,29.19
2022-08-17T11:43:45.708Z,29.05
2022-08-17T11:46:59.122Z,28.92
2022-08-17T11:50:17.694Z,28.80
2022-08-17T11:52:50.537Z,28.89
2022-08-17T11:55:37.548Z,28.74
2022-08-17T11:58:37.425Z,28.62
2022-08-17T12:01:16.229Z,28.37
2022-08-17T12:03:54.198Z,28.20
2022-08-17T12:06:35.190Z,28.33
2022-08-17T12:09:20.472Z,28.12
2022-08-17T12:12:13.082Z,28.39
2022-08-17T12:15:10.497Z,28.54
2022-08-17T12:17:42.761Z,28.39
2022-08-17T12:20:23.447Z,28.77
2022-08-17T12:23:18.626Z,29.07
2022-08-17T12:26:19.946Z,29.13
2022-08-17T12:28:51.821Z,29.18
2022-08-17T12:31:26.543Z,29.11
2022-08-17T12:33:54.645Z,29.13
2022-08-17T12:36:24.856Z,29.01
2022-08-17T12:39:13.284Z,29.17
2022-08-17T12:41:46.971Z,28.94
2022-08-17T12:44:18.509Z,28.97
2022-08-17T12:46:51.429Z,28.85
2022-08-17T12:49:39.821Z,28.84
2022-08-17T12:52:20.041Z,28.85
2022-08-17T12:55:12.149Z,29.09
2022-08-17T12:57:42.261Z,29.13
2022-08-17T13:00:20.067Z,29.17
2022-08-17T13:02:51.723Z,29.11
2022-08-17T13:05:31.790Z,29.01
2022-08-17T13:08:00.095Z,28.65
2022-08-17T13:10:33.178Z,28.68
2022-08-17T13:13:19.402Z,28.63
2022-08-17T13:16:00.900Z,28.93
2022-08-17T13:18:45.166Z,28.89
2022-08-17T13:21:27.606Z,28.94
2022-08-17T13:23:59.921Z,29.07
2022-08-17T13:26:36.954Z,29.06
2022-08-17T13:29:21.884Z,28.95
2022-08-17T13:32:01.109Z,28.95
2022-08-17T13:34:56.117Z,29.04
2022-08-17T13:37:33.312Z,29.14
2022-08-17T13:40:02.532Z,29.18
2022-08-17T13:42:50.456Z,29.17
2022-08-17T13:45:36.872Z,29.25
2022-08-17T13:48:20.682Z,29.24
2022-08-17T13:51:05.269Z,29.21
2022-08-17T13:53:51.243Z,29.16
2022-08-17T13:56:39.734Z,29.30
2022-08-17T13:59:14.576Z,29.07
2022-08-17T14:01:42.138Z,29.00
2022-08-17T14:04:34.042Z,28.98
2022-08-17T14:07:09.714Z,29.05
2022-08-17T14:09:46.696Z,29.07
2022-08-17T14:12:17.620Z,28.95
2022-08-17T14:14:45.666Z,28.96
2022-08-17T14:17:13.631Z,28.89
2022-08-17T14:19:41.716Z,28.78
2022-08-17T14:22:18.766Z,28.91
2022-08-17T14:24:46.339Z,29.08
2022-08-17T14:27:13.883Z,29.07
2022-08-17T14:29:46.527Z,29.13
2022-08-17T14:32:20.424Z,29.09
2022-08-17T14:34:49.681Z,28.90
2022-08-17T14:37:19.675Z,28.82
2022-08-17T14:39:47.745Z,28.71
2022-08-17T14:42:17.589Z,28.64
2022-08-17T14:44:45.247Z,28.61
2022-08-17T14:47:15.923Z,28.64
2022-08-17T14:49:47.546Z,28.62
2022-08-17T14:52:21.577Z,28.65
2022-08-17T21:38:57.945Z,25.12
2022-08-17T21:41:30.768Z,25.08
2022-08-17T21:44:18.718Z,24.91
2022-08-17T21:46:50.183Z,24.89
2022-08-17T21:49:21.411Z,24.92
2022-08-17T21:51:55.314Z,24.86
2022-08-17T21:54:22.880Z,24.77
2022-08-17T21:56:50.393Z,24.77
2022-08-17T21:59:35.734Z,24.75
2022-08-17T22:02:07.596Z,24.71
2022-08-17T22:04:40.782Z,24.81
2022-08-17T22:07:13.574Z,24.74
2022-08-17T22:09:50.044Z,24.80
2022-08-17T22:12:22.783Z,24.85
2022-08-17T22:15:00.887Z,24.87
2022-08-17T22:17:45.313Z,24.86
2022-08-17T22:20:18.540Z,24.84
2022-08-17T22:23:15.193Z,24.79
2022-08-17T22:26:06.197Z,24.73
2022-08-17T22:28:42.753Z,24.78
2022-08-17T22:31:14.453Z,24.74
2022-08-17T22:33:44.590Z,24.75
2022-08-17T22:36:26.319Z,24.75
2022-08-17T22:39:09.310Z,24.73
2022-08-17T22:41:55.809Z,24.74
2022-08-17T22:44:28.045Z,24.65
2022-08-17T22:46:57.747Z,24.64
2022-08-17T22:49:54.018Z,24.58
2022-08-17T22:55:43.115Z,24.60
2022-08-17T22:58:31.829Z,24.60
2022-08-17T23:01:22.428Z,24.57
2022-08-17T23:06:24.186Z,24.61
2022-08-17T23:08:56.358Z,24.55
2022-08-17T23:11:36.994Z,24.50
2022-08-17T23:14:15.897Z,24.49
2022-08-17T23:16:43.619Z,24.55
2022-08-17T23:19:12.710Z,24.57
2022-08-17T23:21:40.538Z,24.63
2022-08-17T23:24:09.077Z,24.44
2022-08-17T23:26:38.238Z,24.52
2022-08-17T23:29:06.772Z,24.49
2022-08-17T23:31:36.221Z,24.49
2022-08-17T23:34:09.023Z,24.47
2022-08-17T23:36:36.914Z,24.46
2022-08-17T23:39:05.513Z,24.45
2022-08-17T23:41:36.374Z,24.41
2022-08-17T23:44:05.664Z,24.43
2022-08-17T23:46:34.579Z,24.44
2022-08-17T23:49:03.264Z,24.43
2022-08-17T23:51:38.316Z,24.32
2022-08-17T23:54:37.464Z,24.40
2022-08-17T23:57:05.202Z,24.40
2022-08-17T23:59:33.920Z,24.39
